^^
Station Historical Data
 
Daily Summary for October 21, 2014 Units:  English    Metric   Both
« Previous Day
Next Day »
Daily Weekly Monthly Yearly Custom
  Current: High: Low: Average:
Temperature: 64.0 °F 64.0 °F 48.8 °F 53.8 °F
Dew Point: 53.2 °F 54.9 °F 47.8 °F 51.3 °F
Humidity: 68% 99% 68% 92%
Wind Speed: 3.5mph 6.0mph 0.0mph 2.1mph
Wind Gust: 3.5mph 6.0mph - -
WindNW - - SW
Pressure: 29.76 in 29.86 in 29.76 in -
Precipitation: 0.02 in      
Historical Graphs
 
 
Tabular Data for October 21, 2014
Time Temperature Dew Point Pressure Wind Wind Speed Wind Gust Humidity Rainfall Rate (Hourly)
00:04 53.2 °F 48.8 °F 29.86 in Calm     85% 0.00 in
00:09 53.2 °F 49.1 °F 29.86 in Calm     86% 0.00 in
00:14 53.1 °F 49.3 °F 29.86 in Calm     87% 0.00 in
00:19 53.1 °F 49.6 °F 29.85 in Calm   0.1 mph 88% 0.00 in
00:24 53.1 °F 49.6 °F 29.85 in Calm     88% 0.00 in
00:29 53.1 °F 49.9 °F 29.85 in Calm     89% 0.01 in
00:34 53.0 °F 50.1 °F 29.85 in Calm   0.2 mph 90% 0.01 in
00:39 52.8 °F 49.9 °F 29.85 in Calm     90% 0.01 in
00:44 52.7 °F 49.8 °F 29.85 in Calm     90% 0.01 in
00:49 52.6 °F 50.0 °F 29.85 in Calm     91% 0.01 in
00:54 52.6 °F 50.0 °F 29.84 in Calm     91% 0.01 in
00:59 52.5 °F 50.2 °F 29.84 in Calm   0.1 mph 92% 0.01 in
01:04 52.4 °F 50.1 °F 29.84 in Calm     92% 0.01 in
01:09 52.4 °F 50.4 °F 29.84 in Calm     93% 0.01 in
01:14 52.4 °F 50.4 °F 29.84 in SSW 1.2 mph   93% 0.01 in
01:19 52.3 °F 50.3 °F 29.83 in Calm     93% 0.01 in
01:24 52.2 °F 50.2 °F 29.84 in SSW 1.2 mph 1.2 mph 93% 0.01 in
01:29 52.2 °F 50.2 °F 29.84 in Calm     93% 0.00 in
01:34 52.1 °F 50.4 °F 29.84 in SSW 1.2 mph 1.2 mph 94% 0.00 in
01:39 52.1 °F 50.4 °F 29.84 in Calm     94% 0.00 in
01:44 52.1 °F 50.4 °F 29.83 in SSW 1.2 mph   94% 0.00 in
01:49 52.3 °F 50.6 °F 29.83 in SE 2.3 mph 2.3 mph 94% 0.00 in
01:54 52.4 °F 50.7 °F 29.83 in Calm     94% 0.00 in
01:59 52.6 °F 50.9 °F 29.83 in SE 1.2 mph   94% 0.00 in
02:04 52.6 °F 50.9 °F 29.83 in SE 1.2 mph 1.2 mph 94% 0.00 in
02:09 52.7 °F 51.0 °F 29.83 in SE 1.2 mph 1.2 mph 94% 0.00 in
02:14 52.7 °F 51.0 °F 29.83 in SE 1.2 mph 1.2 mph 94% 0.00 in
02:19 52.8 °F 51.1 °F 29.83 in Calm     94% 0.00 in
02:24 52.8 °F 51.1 °F 29.83 in SE 1.2 mph 1.2 mph 94% 0.00 in
02:29 52.8 °F 51.1 °F 29.83 in SE 1.2 mph 1.2 mph 94% 0.00 in
02:34 52.8 °F 51.1 °F 29.83 in Calm     94% 0.00 in
02:39 52.8 °F 51.1 °F 29.83 in Calm     94% 0.00 in
02:44 52.9 °F 51.2 °F 29.83 in Calm     94% 0.00 in
02:49 52.8 °F 51.1 °F 29.83 in Calm     94% 0.00 in
02:55 52.8 °F 51.1 °F 29.83 in Calm     94% 0.00 in
03:00 52.7 °F 51.0 °F 29.82 in SE 1.2 mph   94% 0.01 in
03:05 52.7 °F 51.0 °F 29.82 in SE 1.2 mph 1.2 mph 94% 0.01 in
03:10 52.6 °F 50.9 °F 29.81 in SE 1.2 mph 1.2 mph 94% 0.01 in
03:15 52.5 °F 50.8 °F 29.81 in Calm     94% 0.01 in
03:20 52.5 °F 50.8 °F 29.81 in SE 1.2 mph   94% 0.01 in
03:25 52.4 °F 50.7 °F 29.81 in Calm     94% 0.01 in
03:30 52.4 °F 51.0 °F 29.81 in Calm     95% 0.01 in
03:35 52.4 °F 50.7 °F 29.81 in Calm     94% 0.01 in
03:40 52.4 °F 51.0 °F 29.81 in Calm     95% 0.01 in
03:45 52.4 °F 51.0 °F 29.81 in Calm     95% 0.01 in
03:50 52.3 °F 50.9 °F 29.81 in Calm     95% 0.01 in
03:55 52.3 °F 50.9 °F 29.80 in Calm     95% 0.01 in
04:00 52.2 °F 50.8 °F 29.80 in Calm     95% 0.00 in
04:05 52.2 °F 50.8 °F 29.80 in Calm     95% 0.00 in
04:10 52.2 °F 50.8 °F 29.80 in Calm     95% 0.00 in
04:15 52.1 °F 50.7 °F 29.80 in Calm     95% 0.00 in
04:20 52.1 °F 51.0 °F 29.80 in ENE 2.3 mph   96% 0.00 in
04:25 52.0 °F 50.9 °F 29.80 in Calm     96% 0.00 in
04:30 51.9 °F 50.5 °F 29.80 in Calm     95% 0.00 in
04:35 51.9 °F 50.8 °F 29.80 in Calm     96% 0.00 in
04:40 51.8 °F 50.7 °F 29.80 in Calm     96% 0.00 in
04:45 51.8 °F 50.7 °F 29.80 in Calm     96% 0.00 in
04:50 51.7 °F 50.6 °F 29.80 in Calm     96% 0.00 in
04:55 51.7 °F 50.6 °F 29.80 in Calm     96% 0.00 in
05:00 51.7 °F 50.6 °F 29.80 in Calm     96% 0.00 in
05:05 51.6 °F 50.5 °F 29.80 in Calm     96% 0.00 in
05:10 51.6 °F 50.5 °F 29.80 in Calm     96% 0.00 in
05:15 51.5 °F 50.4 °F 29.80 in Calm     96% 0.00 in
05:20 51.5 °F 50.4 °F 29.79 in Calm     96% 0.00 in
05:25 51.4 °F 50.3 °F 29.79 in Calm     96% 0.00 in
05:30 51.2 °F 50.1 °F 29.79 in Calm     96% 0.00 in
05:35 51.0 °F 49.9 °F 29.79 in Calm     96% 0.00 in
05:40 50.7 °F 49.6 °F 29.80 in Calm     96% 0.00 in
05:45 50.5 °F 49.4 °F 29.79 in Calm     96% 0.00 in
05:50 50.3 °F 49.2 °F 29.79 in Calm     96% 0.00 in
05:55 50.1 °F 49.0 °F 29.79 in Calm     96% 0.00 in
06:00 49.9 °F 48.8 °F 29.79 in Calm     96% 0.00 in
06:05 49.6 °F 48.5 °F 29.79 in Calm     96% 0.00 in
06:10 49.4 °F 48.3 °F 29.80 in Calm     96% 0.00 in
06:15 49.2 °F 48.1 °F 29.79 in Calm     96% 0.00 in
06:20 49.1 °F 48.0 °F 29.80 in Calm     96% 0.00 in
06:25 48.9 °F 47.8 °F 29.80 in Calm     96% 0.00 in
06:30 48.9 °F 47.8 °F 29.80 in Calm     96% 0.00 in
06:35 48.8 °F 48.0 °F 29.80 in Calm     97% 0.00 in
06:40 48.8 °F 48.0 °F 29.80 in Calm     97% 0.00 in
06:45 48.9 °F 48.1 °F 29.80 in Calm     97% 0.00 in
06:50 49.1 °F 48.3 °F 29.80 in Calm     97% 0.00 in
06:55 49.2 °F 48.4 °F 29.80 in Calm     97% 0.00 in
07:00 49.4 °F 48.6 °F 29.80 in Calm     97% 0.00 in
07:05 49.5 °F 48.7 °F 29.80 in Calm     97% 0.00 in
07:10 49.6 °F 48.8 °F 29.80 in Calm     97% 0.00 in
07:15 49.7 °F 48.9 °F 29.80 in Calm     97% 0.00 in
07:20 49.8 °F 49.3 °F 29.80 in Calm     98% 0.00 in
07:25 49.9 °F 49.4 °F 29.80 in Calm     98% 0.00 in
07:30 49.9 °F 49.4 °F 29.80 in Calm     98% 0.00 in
07:35 49.9 °F 49.4 °F 29.80 in Calm     98% 0.00 in
07:40 49.9 °F 49.4 °F 29.80 in Calm     98% 0.00 in
07:45 50.0 °F 49.5 °F 29.80 in Calm     98% 0.00 in
07:50 50.1 °F 49.6 °F 29.80 in Calm     98% 0.00 in
07:55 50.2 °F 49.7 °F 29.80 in Calm     98% 0.00 in
08:00 50.3 °F 49.8 °F 29.80 in Calm     98% 0.00 in
08:05 50.5 °F 50.0 °F 29.80 in Calm     98% 0.00 in
08:10 50.7 °F 50.2 °F 29.81 in ENE 1.2 mph   98% 0.00 in
08:15 50.9 °F 50.4 °F 29.81 in Calm     98% 0.00 in
08:20 51.0 °F 50.5 °F 29.81 in Calm     98% 0.00 in
08:25 51.2 °F 50.7 °F 29.81 in Calm     98% 0.00 in
08:30 51.3 °F 50.8 °F 29.81 in Calm     98% 0.00 in
08:35 51.4 °F 50.9 °F 29.81 in ENE 1.2 mph 1.2 mph 98% 0.00 in
08:40 51.4 °F 50.9 °F 29.82 in Calm     98% 0.00 in
08:45 51.4 °F 50.9 °F 29.82 in Calm     98% 0.00 in
08:50 51.5 °F 51.0 °F 29.82 in ENE 2.3 mph 2.3 mph 98% 0.00 in
08:55 51.7 °F 51.2 °F 29.82 in Calm     98% 0.00 in
09:00 51.8 °F 51.3 °F 29.82 in SE 1.2 mph 1.2 mph 98% 0.00 in
09:05 51.9 °F 51.4 °F 29.81 in SE 1.2 mph   98% 0.00 in
09:10 52.0 °F 51.7 °F 29.82 in SE 1.2 mph   99% 0.00 in
09:15 52.0 °F 51.7 °F 29.82 in Calm     99% 0.00 in
09:20 52.1 °F 51.8 °F 29.82 in Calm     99% 0.00 in
09:25 52.0 °F 51.5 °F 29.82 in Calm     98% 0.00 in
09:30 52.0 °F 51.7 °F 29.82 in Calm     99% 0.00 in
09:35 52.1 °F 51.8 °F 29.82 in SE 1.0 mph 1.0 mph 99% 0.00 in
09:40 52.1 °F 51.8 °F 29.82 in Calm     99% 0.00 in
09:45 52.1 °F 51.8 °F 29.82 in Calm     99% 0.00 in
09:50 52.3 °F 51.8 °F 29.82 in Calm     98% 0.00 in
09:55 52.4 °F 51.9 °F 29.82 in Calm     98% 0.00 in
10:00 52.5 °F 52.2 °F 29.82 in Calm     99% 0.00 in
10:05 52.6 °F 52.3 °F 29.82 in Calm     99% 0.00 in
10:10 52.9 °F 52.6 °F 29.82 in Calm     99% 0.00 in
10:15 53.2 °F 52.9 °F 29.82 in Calm     99% 0.00 in
10:20 53.2 °F 52.9 °F 29.82 in Calm     99% 0.00 in
10:25 53.3 °F 53.0 °F 29.82 in Calm     99% 0.00 in
10:30 53.7 °F 53.4 °F 29.82 in ESE 2.0 mph 2.0 mph 99% 0.00 in
10:35 54.1 °F 53.8 °F 29.82 in North 2.0 mph 2.0 mph 99% 0.00 in
10:40 54.5 °F 54.2 °F 29.82 in Calm     99% 0.00 in
10:45 54.8 °F 54.2 °F 29.82 in North 1.2 mph   98% 0.00 in
10:50 55.0 °F 54.2 °F 29.82 in North 2.3 mph   97% 0.00 in
10:55 55.5 °F 54.4 °F 29.81 in North 2.3 mph 2.3 mph 96% 0.00 in
11:00 56.0 °F 54.3 °F 29.81 in North 1.2 mph   94% 0.00 in
11:05 56.5 °F 54.5 °F 29.82 in North 1.2 mph 1.2 mph 93% 0.00 in
11:10 57.0 °F 54.1 °F 29.81 in Calm     90% 0.00 in
11:15 57.2 °F 53.7 °F 29.81 in NNE 1.2 mph 1.2 mph 88% 0.00 in
11:20 57.4 °F 54.2 °F 29.82 in NNE 1.0 mph   89% 0.00 in
11:25 58.0 °F 54.5 °F 29.82 in Calm     88% 0.00 in
11:30 58.3 °F 54.1 °F 29.81 in NW 1.2 mph 1.2 mph 86% 0.00 in
11:35 58.4 °F 53.9 °F 29.82 in Calm     85% 0.00 in
11:40 58.5 °F 54.0 °F 29.81 in NW 2.3 mph 2.3 mph 85% 0.00 in
11:45 58.4 °F 53.3 °F 29.81 in Calm     83% 0.00 in
11:50 58.6 °F 54.1 °F 29.81 in Calm     85% 0.00 in
11:55 59.0 °F 54.2 °F 29.81 in NW 3.5 mph 3.5 mph 84% 0.00 in
12:00 59.4 °F 54.2 °F 29.81 in NW 1.0 mph   83% 0.00 in
12:05 59.8 °F 54.3 °F 29.81 in NW 2.3 mph   82% 0.00 in
12:10 60.2 °F 54.0 °F 29.80 in NW 1.2 mph 1.2 mph 80% 0.00 in
12:15 60.4 °F 54.9 °F 29.80 in NW 1.2 mph   82% 0.00 in
12:20 60.9 °F 54.0 °F 29.80 in NW 4.6 mph 4.6 mph 78% 0.00 in
12:25 61.0 °F 54.4 °F 29.80 in NW 4.6 mph 4.6 mph 79% 0.00 in
12:30 61.1 °F 54.5 °F 29.80 in NW 2.3 mph 2.3 mph 79% 0.00 in
12:35 61.2 °F 53.9 °F 29.80 in NW 1.2 mph 1.2 mph 77% 0.00 in
12:40 61.3 °F 54.0 °F 29.80 in NW 1.2 mph 1.2 mph 77% 0.00 in
12:45 61.3 °F 54.0 °F 29.79 in NW 3.5 mph 3.5 mph 77% 0.00 in
12:50 61.2 °F 54.3 °F 29.79 in NW 1.2 mph   78% 0.00 in
12:55 61.2 °F 53.9 °F 29.79 in NW 3.5 mph 3.5 mph 77% 0.00 in
13:00 61.2 °F 53.2 °F 29.79 in NW 4.6 mph 4.6 mph 75% 0.00 in
13:05 61.1 °F 53.8 °F 29.79 in NW 1.2 mph 1.2 mph 77% 0.00 in
13:10 61.2 °F 53.9 °F 29.79 in NW 1.2 mph 1.2 mph 77% 0.00 in
13:15 61.7 °F 54.1 °F 29.79 in NW 2.3 mph 2.3 mph 76% 0.00 in
13:20 62.4 °F 54.7 °F 29.78 in SE 4.6 mph 4.6 mph 76% 0.00 in
13:25 62.5 °F 53.7 °F 29.77 in SSE 2.3 mph 2.3 mph 73% 0.00 in
13:30 62.5 °F 53.7 °F 29.78 in Calm     73% 0.00 in
13:35 62.7 °F 53.5 °F 29.78 in ESE 1.2 mph   72% 0.00 in
13:40 63.1 °F 53.9 °F 29.77 in ESE 1.2 mph 1.2 mph 72% 0.00 in
13:45 63.4 °F 53.8 °F 29.77 in Calm     71% 0.00 in
13:50 63.4 °F 52.7 °F 29.77 in Calm     68% 0.00 in
13:55 63.6 °F 53.2 °F 29.77 in WNW 4.6 mph 4.6 mph 69% 0.00 in
14:00 63.8 °F 53.4 °F 29.77 in NW 4.6 mph 4.6 mph 69% 0.00 in
14:05 63.8 °F 53.4 °F 29.77 in NNW 5.8 mph 5.8 mph 69% 0.00 in
14:10 64.0 °F 53.2 °F 29.76 in NW 6.0 mph 6.0 mph 68% 0.00 in
14:15 64.0 °F 53.2 °F 29.76 in NW 3.5 mph 3.5 mph 68% 0.00 in
Mechanicsburg,PA USA
Compliments of Weather Underground